sensor_id;sensor_type;location;lat;lon;timestamp;pressure;altitude;pressure_sealevel;temperature;humidity
22389;BME280;11362;48.102;11.620;2022-08-03T00:00:32;95427.69;;;26.05;42.97
22389;BME280;11362;48.102;11.620;2022-08-03T00:02:57;95425.66;;;26.05;42.90
22389;BME280;11362;48.102;11.620;2022-08-03T00:05:23;95424.09;;;26.04;43.17
22389;BME280;11362;48.102;11.620;2022-08-03T00:07:48;95423.31;;;26.04;43.35
22389;BME280;11362;48.102;11.620;2022-08-03T00:10:13;95421.31;;;26.04;43.15
22389;BME280;11362;48.102;11.620;2022-08-03T00:12:39;95418.19;;;26.02;43.16
22389;BME280;11362;48.102;11.620;2022-08-03T00:15:04;95418.94;;;26.03;43.21
22389;BME280;11362;48.102;11.620;2022-08-03T00:17:30;95417.38;;;26.02;42.84
22389;BME280;11362;48.102;11.620;2022-08-03T00:19:55;95416.97;;;26.03;43.01
22389;BME280;11362;48.102;11.620;2022-08-03T00:22:20;95426.09;;;26.04;43.00
22389;BME280;11362;48.102;11.620;2022-08-03T00:24:46;95416.97;;;26.03;43.22
22389;BME280;11362;48.102;11.620;2022-08-03T00:27:11;95420.16;;;26.02;43.15
22389;BME280;11362;48.102;11.620;2022-08-03T00:29:36;95413.84;;;26.01;42.84
22389;BME280;11362;48.102;11.620;2022-08-03T00:32:02;95413.84;;;26.01;43.12
22389;BME280;11362;48.102;11.620;2022-08-03T00:34:27;95412.25;;;26.00;43.04
22389;BME280;11362;48.102;11.620;2022-08-03T00:36:52;95403.53;;;25.98;43.00
22389;BME280;11362;48.102;11.620;2022-08-03T00:39:18;95411.91;;;25.98;42.94
22389;BME280;11362;48.102;11.620;2022-08-03T00:41:43;95409.09;;;25.98;42.90
22389;BME280;11362;48.102;11.620;2022-08-03T00:44:08;95407.53;;;25.97;42.94
22389;BME280;11362;48.102;11.620;2022-08-03T00:46:33;95409.09;;;25.98;42.52
22389;BME280;11362;48.102;11.620;2022-08-03T00:48:59;95413.13;;;25.97;42.77
22389;BME280;11362;48.102;11.620;2022-08-03T00:51:24;95411.13;;;25.98;42.70
22389;BME280;11362;48.102;11.620;2022-08-03T00:53:50;95413.91;;;25.98;42.79
22389;BME280;11362;48.102;11.620;2022-08-03T00:56:15;95405.97;;;25.96;42.54
22389;BME280;11362;48.102;11.620;2022-08-03T00:58:43;95413.53;;;25.96;42.57
22389;BME280;11362;48.102;11.620;2022-08-03T01:01:09;95417.13;;;25.96;42.41
22389;BME280;11362;48.102;11.620;2022-08-03T01:03:35;95409.19;;;25.95;42.49
22389;BME280;11362;48.102;11.620;2022-08-03T01:06:11;95421.13;;;25.95;42.51
22389;BME280;11362;48.102;11.620;2022-08-03T01:08:47;95409.97;;;25.95;42.78
22389;BME280;11362;48.102;11.620;2022-08-03T01:11:18;95415.53;;;25.95;42.79
22389;BME280;11362;48.102;11.620;2022-08-03T01:14:05;95411.19;;;25.94;42.58
22389;BME280;11362;48.102;11.620;2022-08-03T01:16:45;95408.41;;;25.94;42.23
22389;BME280;11362;48.102;11.620;2022-08-03T01:22:01;95409.59;;;25.93;42.64
22389;BME280;11362;48.102;11.620;2022-08-03T01:24:42;95399.69;;;25.92;42.47
22389;BME280;11362;48.102;11.620;2022-08-03T01:27:20;95399.69;;;25.92;42.64
22389;BME280;11362;48.102;11.620;2022-08-03T01:29:55;95391.34;;;25.92;42.56
22389;BME280;11362;48.102;11.620;2022-08-03T01:32:36;95391.34;;;25.92;42.44
22389;BME280;11362;48.102;11.620;2022-08-03T01:35:12;95393.00;;;25.90;42.61
22389;BME280;11362;48.102;11.620;2022-08-03T01:37:56;95383.06;;;25.89;42.52
22389;BME280;11362;48.102;11.620;2022-08-03T01:40:24;95395.00;;;25.89;42.32
22389;BME280;11362;48.102;11.620;2022-08-03T01:42:51;95389.44;;;25.89;42.53
22389;BME280;11362;48.102;11.620;2022-08-03T01:45:20;95381.47;;;25.88;42.29
22389;BME280;11362;48.102;11.620;2022-08-03T01:47:47;95388.63;;;25.89;42.48
22389;BME280;11362;48.102;11.620;2022-08-03T01:50:14;95391.41;;;25.89;42.48
22389;BME280;11362;48.102;11.620;2022-08-03T01:52:43;95387.03;;;25.88;42.54
22389;BME280;11362;48.102;11.620;2022-08-03T01:55:11;95384.25;;;25.88;42.43
22389;BME280;11362;48.102;11.620;2022-08-03T01:57:38;95392.59;;;25.88;42.13
22389;BME280;11362;48.102;11.620;2022-08-03T02:00:05;95383.47;;;25.87;42.51
22389;BME280;11362;48.102;11.620;2022-08-03T02:02:31;95385.47;;;25.87;42.24
22389;BME280;11362;48.102;11.620;2022-08-03T02:04:59;95381.91;;;25.86;42.12
22389;BME280;11362;48.102;11.620;2022-08-03T02:07:25;95385.47;;;25.87;42.01
22389;BME280;11362;48.102;11.620;2022-08-03T02:09:53;95388.25;;;25.87;42.33
22389;BME280;11362;48.102;11.620;2022-08-03T02:12:21;95387.47;;;25.86;41.94
22389;BME280;11362;48.102;11.620;2022-08-03T02:14:48;95387.47;;;25.86;42.24
22389;BME280;11362;48.102;11.620;2022-08-03T02:17:14;95385.88;;;25.85;41.98
22389;BME280;11362;48.102;11.620;2022-08-03T02:19:42;95383.09;;;25.85;41.92
22389;BME280;11362;48.102;11.620;2022-08-03T02:22:10;95382.34;;;25.85;41.79
22389;BME280;11362;48.102;11.620;2022-08-03T02:24:35;95380.31;;;25.85;41.89
22389;BME280;11362;48.102;11.620;2022-08-03T02:27:03;95385.88;;;25.85;41.85
22389;BME280;11362;48.102;11.620;2022-08-03T02:29:33;95388.66;;;25.85;41.97
22389;BME280;11362;48.102;11.620;2022-08-03T02:32:00;95383.09;;;25.85;42.04
22389;BME280;11362;48.102;11.620;2022-08-03T02:34:28;95383.09;;;25.85;41.57
22389;BME280;11362;48.102;11.620;2022-08-03T02:36:55;95380.78;;;25.84;41.81
22389;BME280;11362;48.102;11.620;2022-08-03T02:39:23;95385.53;;;25.83;41.77
22389;BME280;11362;48.102;11.620;2022-08-03T02:41:51;95384.78;;;25.83;41.99
22389;BME280;11362;48.102;11.620;2022-08-03T02:44:22;95386.75;;;25.82;41.79
22389;BME280;11362;48.102;11.620;2022-08-03T02:46:53;95383.19;;;25.82;41.73
22389;BME280;11362;48.102;11.620;2022-08-03T02:49:20;95379.63;;;25.81;41.87
22389;BME280;11362;48.102;11.620;2022-08-03T02:51:46;95381.63;;;25.81;41.31
22389;BME280;11362;48.102;11.620;2022-08-03T02:54:15;95381.63;;;25.81;41.47
22389;BME280;11362;48.102;11.620;2022-08-03T02:56:43;95383.63;;;25.80;41.56
22389;BME280;11362;48.102;11.620;2022-08-03T02:59:09;95386.41;;;25.80;41.43
22389;BME280;11362;48.102;11.620;2022-08-03T03:01:37;95382.06;;;25.79;41.48
22389;BME280;11362;48.102;11.620;2022-08-03T03:04:04;95382.06;;;25.79;41.50
22389;BME280;11362;48.102;11.620;2022-08-03T03:06:30;95382.47;;;25.78;41.44
22389;BME280;11362;48.102;11.620;2022-08-03T03:08:56;95377.69;;;25.78;41.44
22389;BME280;11362;48.102;11.620;2022-08-03T03:11:22;95377.34;;;25.76;41.59
22389;BME280;11362;48.102;11.620;2022-08-03T03:13:49;95377.34;;;25.76;41.30
22389;BME280;11362;48.102;11.620;2022-08-03T03:16:15;95377.34;;;25.76;41.43
22389;BME280;11362;48.102;11.620;2022-08-03T03:18:43;95377.34;;;25.76;41.07
22389;BME280;11362;48.102;11.620;2022-08-03T03:21:09;95371.00;;;25.76;41.29
22389;BME280;11362;48.102;11.620;2022-08-03T03:23:39;95375.78;;;25.75;41.35
22389;BME280;11362;48.102;11.620;2022-08-03T03:26:06;95373.00;;;25.75;41.20
22389;BME280;11362;48.102;11.620;2022-08-03T03:28:32;95378.13;;;25.77;41.17
22389;BME280;11362;48.102;11.620;2022-08-03T03:30:58;95375.34;;;25.77;41.28
22389;BME280;11362;48.102;11.620;2022-08-03T03:33:24;95376.56;;;25.76;41.39
22389;BME280;11362;48.102;11.620;2022-08-03T03:35:50;95379.34;;;25.76;40.97
22389;BME280;11362;48.102;11.620;2022-08-03T03:38:16;95379.34;;;25.76;41.27
22389;BME280;11362;48.102;11.620;2022-08-03T03:40:41;95388.13;;;25.74;41.12
22389;BME280;11362;48.102;11.620;2022-08-03T03:43:08;95379.78;;;25.74;41.33
22389;BME280;11362;48.102;11.620;2022-08-03T03:45:34;95375.44;;;25.73;41.05
22389;BME280;11362;48.102;11.620;2022-08-03T03:48:01;95375.44;;;25.73;41.12
22389;BME280;11362;48.102;11.620;2022-08-03T03:50:29;95388.88;;;25.75;41.22
22389;BME280;11362;48.102;11.620;2022-08-03T03:52:54;95388.13;;;25.74;41.21
22389;BME280;11362;48.102;11.620;2022-08-03T03:55:20;95393.69;;;25.74;40.88
22389;BME280;11362;48.102;11.620;2022-08-03T03:57:45;95388.53;;;25.73;40.98
22389;BME280;11362;48.102;11.620;2022-08-03T04:00:12;95386.56;;;25.73;41.29
22389;BME280;11362;48.102;11.620;2022-08-03T04:02:38;95380.19;;;25.73;41.03
22389;BME280;11362;48.102;11.620;2022-08-03T04:05:03;95387.78;;;25.72;41.29
22389;BME280;11362;48.102;11.620;2022-08-03T04:07:36;95387.38;;;25.70;40.96
22389;BME280;11362;48.102;11.620;2022-08-03T04:10:20;95388.97;;;25.71;41.03
22389;BME280;11362;48.102;11.620;2022-08-03T04:12:47;95388.19;;;25.71;40.83
22389;BME280;11362;48.102;11.620;2022-08-03T04:15:18;95394.53;;;25.71;40.84
22389;BME280;11362;48.102;11.620;2022-08-03T04:17:46;95391.75;;;25.71;41.10
22389;BME280;11362;48.102;11.620;2022-08-03T04:20:13;95387.38;;;25.70;40.97
22389;BME280;11362;48.102;11.620;2022-08-03T04:22:39;95373.84;;;25.72;40.91
22389;BME280;11362;48.102;11.620;2022-08-03T04:25:08;95383.69;;;25.77;40.80
22389;BME280;11362;48.102;11.620;2022-08-03T04:27:36;95376.84;;;25.81;41.18
22389;BME280;11362;48.102;11.620;2022-08-03T04:30:05;95388.66;;;25.85;40.90
22389;BME280;11362;48.102;11.620;2022-08-03T04:32:31;95382.69;;;25.87;41.28
22389;BME280;11362;48.102;11.620;2022-08-03T04:34:58;95385.47;;;25.87;41.36
22389;BME280;11362;48.102;11.620;2022-08-03T04:37:32;95385.06;;;25.88;41.43
22389;BME280;11362;48.102;11.620;2022-08-03T04:40:02;95382.28;;;25.88;41.49
22389;BME280;11362;48.102;11.620;2022-08-03T04:42:30;95383.84;;;25.89;41.92
22389;BME280;11362;48.102;11.620;2022-08-03T04:44:57;95394.13;;;25.92;41.83
22389;BME280;11362;48.102;11.620;2022-08-03T04:47:22;95389.00;;;25.91;41.73
22389;BME280;11362;48.102;11.620;2022-08-03T04:49:48;95390.13;;;25.93;42.02
22389;BME280;11362;48.102;11.620;2022-08-03T04:52:13;95394.13;;;25.92;41.72
22389;BME280;11362;48.102;11.620;2022-08-03T04:54:44;95391.72;;;25.94;41.80
22389;BME280;11362;48.102;11.620;2022-08-03T04:57:10;95390.50;;;25.95;41.73
22389;BME280;11362;48.102;11.620;2022-08-03T04:59:36;95392.47;;;25.95;42.25
22389;BME280;11362;48.102;11.620;2022-08-03T05:02:02;95398.84;;;25.95;42.21
22389;BME280;11362;48.102;11.620;2022-08-03T05:04:27;95393.28;;;25.95;42.31
22389;BME280;11362;48.102;11.620;2022-08-03T05:06:52;95393.28;;;25.95;42.35
22389;BME280;11362;48.102;11.620;2022-08-03T05:09:18;95387.72;;;25.95;42.67
22389;BME280;11362;48.102;11.620;2022-08-03T05:11:43;95400.41;;;25.96;42.34
22389;BME280;11362;48.102;11.620;2022-08-03T05:14:08;95405.97;;;25.96;42.32
22389;BME280;11362;48.102;11.620;2022-08-03T05:16:34;95405.63;;;25.94;42.84
22389;BME280;11362;48.102;11.620;2022-08-03T05:18:59;95407.19;;;25.95;42.63
22389;BME280;11362;48.102;11.620;2022-08-03T05:21:24;95417.94;;;25.93;42.71
22389;BME280;11362;48.102;11.620;2022-08-03T05:23:49;95420.72;;;25.93;42.77
22389;BME280;11362;48.102;11.620;2022-08-03T05:26:15;95422.34;;;25.94;42.76
22389;BME280;11362;48.102;11.620;2022-08-03T05:28:40;95411.97;;;25.95;42.96
22389;BME280;11362;48.102;11.620;2022-08-03T05:31:05;95435.38;;;25.97;42.94
22389;BME280;11362;48.102;11.620;2022-08-03T05:33:31;95424.25;;;25.97;42.90
22389;BME280;11362;48.102;11.620;2022-08-03T05:35:56;95421.53;;;25.94;41.47
22389;BME280;11362;48.102;11.620;2022-08-03T05:38:21;95428.38;;;25.89;41.25
22389;BME280;11362;48.102;11.620;2022-08-03T05:40:47;95427.63;;;25.85;42.02
22389;BME280;11362;48.102;11.620;2022-08-03T05:43:12;95420.09;;;25.86;42.05
22389;BME280;11362;48.102;11.620;2022-08-03T05:45:37;95421.31;;;25.85;41.99
22389;BME280;11362;48.102;11.620;2022-08-03T05:48:04;95424.50;;;25.83;42.00
22389;BME280;11362;48.102;11.620;2022-08-03T05:50:30;95419.72;;;25.84;42.03
22389;BME280;11362;48.102;11.620;2022-08-03T05:52:55;95429.22;;;25.86;41.94
22389;BME280;11362;48.102;11.620;2022-08-03T05:55:20;95419.66;;;25.87;41.68
22389;BME280;11362;48.102;11.620;2022-08-03T05:57:45;95422.81;;;25.89;42.10
22389;BME280;11362;48.102;11.620;2022-08-03T06:00:11;95419.16;;;25.92;42.00
22389;BME280;11362;48.102;11.620;2022-08-03T06:02:37;95421.13;;;25.95;41.98
22389;BME280;11362;48.102;11.620;2022-08-03T06:05:03;95421.88;;;25.96;42.08
22389;BME280;11362;48.102;11.620;2022-08-03T06:07:28;95417.94;;;25.93;42.31
22389;BME280;11362;48.102;11.620;2022-08-03T06:09:54;95422.75;;;25.93;42.12
22389;BME280;11362;48.102;11.620;2022-08-03T06:12:19;95427.59;;;25.89;42.17
22389;BME280;11362;48.102;11.620;2022-08-03T06:14:44;95428.00;;;25.87;42.42
22389;BME280;11362;48.102;11.620;2022-08-03T06:17:10;95428.00;;;25.87;42.22
22389;BME280;11362;48.102;11.620;2022-08-03T06:19:35;95428.44;;;25.86;42.27
22389;BME280;11362;48.102;11.620;2022-08-03T06:22:00;95427.28;;;25.83;42.04
22389;BME280;11362;48.102;11.620;2022-08-03T06:24:26;95426.88;;;25.85;42.47
22389;BME280;11362;48.102;11.620;2022-08-03T06:26:51;95426.88;;;25.85;42.54
22389;BME280;11362;48.102;11.620;2022-08-03T06:29:17;95426.06;;;25.84;42.51
22389;BME280;11362;48.102;11.620;2022-08-03T06:31:42;95434.00;;;25.86;42.79
22389;BME280;11362;48.102;11.620;2022-08-03T06:34:07;95433.19;;;25.85;42.55
22389;BME280;11362;48.102;11.620;2022-08-03T06:36:33;95437.56;;;25.86;42.42
22389;BME280;11362;48.102;11.620;2022-08-03T06:38:58;95429.22;;;25.86;42.59
22389;BME280;11362;48.102;11.620;2022-08-03T06:41:24;95432.78;;;25.87;42.66
22389;BME280;11362;48.102;11.620;2022-08-03T06:43:50;95441.94;;;25.87;42.27
22389;BME280;11362;48.102;11.620;2022-08-03T06:46:16;95434.78;;;25.86;42.61
22389;BME280;11362;48.102;11.620;2022-08-03T06:48:41;95434.78;;;25.86;42.26
22389;BME280;11362;48.102;11.620;2022-08-03T06:51:07;95435.56;;;25.87;42.59
22389;BME280;11362;48.102;11.620;2022-08-03T06:53:32;95442.69;;;25.88;42.38
22389;BME280;11362;48.102;11.620;2022-08-03T06:55:57;95436.38;;;25.87;42.52
22389;BME280;11362;48.102;11.620;2022-08-03T06:58:23;95439.16;;;25.87;42.38
22389;BME280;11362;48.102;11.620;2022-08-03T07:00:48;95442.69;;;25.88;42.60
22389;BME280;11362;48.102;11.620;2022-08-03T07:03:14;95447.13;;;25.85;42.62
22389;BME280;11362;48.102;11.620;2022-08-03T07:05:40;95446.41;;;25.81;42.22
22389;BME280;11362;48.102;11.620;2022-08-03T07:08:06;95444.47;;;25.78;42.40
22389;BME280;11362;48.102;11.620;2022-08-03T07:10:31;95437.72;;;25.79;42.43
22389;BME280;11362;48.102;11.620;2022-08-03T07:12:56;95440.84;;;25.81;42.29
22389;BME280;11362;48.102;11.620;2022-08-03T07:15:22;95430.88;;;25.84;42.22
22389;BME280;11362;48.102;11.620;2022-08-03T07:17:47;95432.78;;;25.87;42.05
22389;BME280;11362;48.102;11.620;2022-08-03T07:20:13;95437.97;;;25.88;42.11
22389;BME280;11362;48.102;11.620;2022-08-03T07:22:38;95433.16;;;25.89;42.07
22389;BME280;11362;48.102;11.620;2022-08-03T07:25:04;95435.53;;;25.90;41.95
22389;BME280;11362;48.102;11.620;2022-08-03T07:27:29;95429.53;;;25.92;42.29
22389;BME280;11362;48.102;11.620;2022-08-03T07:29:56;95424.75;;;25.92;42.03
22389;BME280;11362;48.102;11.620;2022-08-03T07:32:21;95419.56;;;25.94;42.29
22389;BME280;11362;48.102;11.620;2022-08-03T07:34:47;95424.31;;;25.94;42.28
22389;BME280;11362;48.102;11.620;2022-08-03T07:37:12;95420.31;;;25.95;42.32
22389;BME280;11362;48.102;11.620;2022-08-03T07:39:37;95421.13;;;25.95;42.14
22389;BME280;11362;48.102;11.620;2022-08-03T07:42:03;95417.88;;;25.97;42.21
22389;BME280;11362;48.102;11.620;2022-08-03T07:44:28;95418.69;;;25.97;42.32
22389;BME280;11362;48.102;11.620;2022-08-03T07:46:53;95420.25;;;25.98;42.64
22389;BME280;11362;48.102;11.620;2022-08-03T07:49:19;95421.81;;;25.99;42.36
22389;BME280;11362;48.102;11.620;2022-08-03T07:51:44;95420.25;;;25.98;42.29
22389;BME280;11362;48.102;11.620;2022-08-03T07:54:09;95417.81;;;26.00;42.54
22389;BME280;11362;48.102;11.620;2022-08-03T07:56:35;95416.63;;;26.01;42.50
22389;BME280;11362;48.102;11.620;2022-08-03T07:59:01;95413.03;;;26.01;42.68
22389;BME280;11362;48.102;11.620;2022-08-03T08:01:26;95407.03;;;26.02;42.61
22389;BME280;11362;48.102;11.620;2022-08-03T08:03:52;95409.84;;;26.02;42.77
22389;BME280;11362;48.102;11.620;2022-08-03T08:06:17;95404.25;;;26.02;42.61
22389;BME280;11362;48.102;11.620;2022-08-03T08:08:43;95405.84;;;26.03;42.64
22389;BME280;11362;48.102;11.620;2022-08-03T08:11:09;95406.59;;;26.04;42.45
22389;BME280;11362;48.102;11.620;2022-08-03T08:13:34;95406.59;;;26.04;42.45
22389;BME280;11362;48.102;11.620;2022-08-03T08:15:59;95404.63;;;26.04;42.66
22389;BME280;11362;48.102;11.620;2022-08-03T08:18:25;95403.41;;;26.05;42.65
22389;BME280;11362;48.102;11.620;2022-08-03T08:20:50;95407.75;;;26.06;42.41
22389;BME280;11362;48.102;11.620;2022-08-03T08:23:16;95401.41;;;26.06;42.76
22389;BME280;11362;48.102;11.620;2022-08-03T08:25:41;95400.97;;;26.07;42.81
22389;BME280;11362;48.102;11.620;2022-08-03T08:28:06;95402.56;;;26.08;42.70
22389;BME280;11362;48.102;11.620;2022-08-03T08:30:32;95403.31;;;26.09;42.69
22389;BME280;11362;48.102;11.620;2022-08-03T08:32:58;95401.34;;;26.09;42.63
22389;BME280;11362;48.102;11.620;2022-08-03T08:35:23;95404.88;;;26.10;42.48
22389;BME280;11362;48.102;11.620;2022-08-03T08:37:49;95407.25;;;26.11;42.56
22389;BME280;11362;48.102;11.620;2022-08-03T08:40:14;95396.53;;;26.10;42.51
22389;BME280;11362;48.102;11.620;2022-08-03T08:42:41;95394.53;;;26.10;42.37
22389;BME280;11362;48.102;11.620;2022-08-03T08:45:08;95396.09;;;26.11;42.26
22389;BME280;11362;48.102;11.620;2022-08-03T08:47:39;95401.34;;;26.09;42.58
22389;BME280;11362;48.102;11.620;2022-08-03T08:50:06;95401.69;;;26.11;42.17
22389;BME280;11362;48.102;11.620;2022-08-03T08:52:32;95397.31;;;26.10;42.12
22389;BME280;11362;48.102;11.620;2022-08-03T08:54:59;95396.09;;;26.11;42.61
22389;BME280;11362;48.102;11.620;2022-08-03T08:57:38;95397.69;;;26.12;42.57
22389;BME280;11362;48.102;11.620;2022-08-03T09:00:08;95396.91;;;26.12;42.64
22389;BME280;11362;48.102;11.620;2022-08-03T09:02:34;95400.88;;;26.11;42.08
22389;BME280;11362;48.102;11.620;2022-08-03T09:05:00;95391.34;;;26.12;41.91
22389;BME280;11362;48.102;11.620;2022-08-03T09:07:26;95394.13;;;26.12;41.88
22389;BME280;11362;48.102;11.620;2022-08-03T09:09:52;95400.03;;;26.14;42.11
22389;BME280;11362;48.102;11.620;2022-08-03T09:12:17;95392.91;;;26.13;41.87
22389;BME280;11362;48.102;11.620;2022-08-03T09:14:43;95393.66;;;26.13;41.85
22389;BME280;11362;48.102;11.620;2022-08-03T09:17:08;95391.69;;;26.14;41.64
22389;BME280;11362;48.102;11.620;2022-08-03T09:19:34;95392.91;;;26.13;41.78
22389;BME280;11362;48.102;11.620;2022-08-03T09:22:17;95392.03;;;26.16;41.85
22389;BME280;11362;48.102;11.620;2022-08-03T09:25:01;95395.22;;;26.14;41.76
22389;BME280;11362;48.102;11.620;2022-08-03T09:27:27;95387.69;;;26.15;41.45
22389;BME280;11362;48.102;11.620;2022-08-03T09:29:53;95384.09;;;26.14;41.54
22389;BME280;11362;48.102;11.620;2022-08-03T09:32:23;95376.13;;;26.16;41.22
22389;BME280;11362;48.102;11.620;2022-08-03T09:34:50;95388.81;;;26.17;40.81
22389;BME280;11362;48.102;11.620;2022-08-03T09:37:18;95384.03;;;26.18;40.81
22389;BME280;11362;48.102;11.620;2022-08-03T09:39:43;95394.41;;;26.17;40.94
22389;BME280;11362;48.102;11.620;2022-08-03T09:42:14;95388.81;;;26.17;41.03
22389;BME280;11362;48.102;11.620;2022-08-03T09:44:45;95383.25;;;26.17;40.77
22389;BME280;11362;48.102;11.620;2022-08-03T09:47:13;95388.81;;;26.17;41.23
22389;BME280;11362;48.102;11.620;2022-08-03T09:49:41;95388.03;;;26.17;40.86
22389;BME280;11362;48.102;11.620;2022-08-03T09:52:14;95388.41;;;26.19;40.44
22389;BME280;11362;48.102;11.620;2022-08-03T09:54:40;95387.94;;;26.20;39.46
22389;BME280;11362;48.102;11.620;2022-08-03T09:57:06;95388.75;;;26.21;39.32
22389;BME280;11362;48.102;11.620;2022-08-03T09:59:32;95389.50;;;26.21;39.82
22389;BME280;11362;48.102;11.620;2022-08-03T10:01:58;95391.09;;;26.22;39.27
22389;BME280;11362;48.102;11.620;2022-08-03T10:04:24;95384.03;;;26.18;39.91
22389;BME280;11362;48.102;11.620;2022-08-03T10:07:06;95387.94;;;26.20;39.03
22389;BME280;11362;48.102;11.620;2022-08-03T10:09:32;95383.94;;;26.21;39.82
22389;BME280;11362;48.102;11.620;2022-08-03T10:12:06;95382.75;;;26.22;39.54
22389;BME280;11362;48.102;11.620;2022-08-03T10:14:31;95381.09;;;26.25;39.46
22389;BME280;11362;48.102;11.620;2022-08-03T10:16:57;95373.53;;;26.25;37.94
22389;BME280;11362;48.102;11.620;2022-08-03T10:19:23;95374.75;;;26.24;38.24
22389;BME280;11362;48.102;11.620;2022-08-03T10:21:49;95375.09;;;26.26;38.29
22389;BME280;11362;48.102;11.620;2022-08-03T10:24:25;95368.72;;;26.26;38.43
22389;BME280;11362;48.102;11.620;2022-08-03T10:27:06;95378.22;;;26.28;38.23
22389;BME280;11362;48.102;11.620;2022-08-03T10:29:38;95367.16;;;26.25;39.04
22389;BME280;11362;48.102;11.620;2022-08-03T10:32:12;95367.16;;;26.25;38.82
22389;BME280;11362;48.102;11.620;2022-08-03T10:34:41;95364.38;;;26.25;39.21
22389;BME280;11362;48.102;11.620;2022-08-03T10:37:09;95365.16;;;26.25;38.38
22389;BME280;11362;48.102;11.620;2022-08-03T10:39:35;95364.66;;;26.30;37.96
22389;BME280;11362;48.102;11.620;2022-08-03T10:42:02;95357.50;;;26.29;37.74
22389;BME280;11362;48.102;11.620;2022-08-03T10:44:32;95360.75;;;26.28;38.12
22389;BME280;11362;48.102;11.620;2022-08-03T10:46:58;95361.97;;;26.27;38.26
22389;BME280;11362;48.102;11.620;2022-08-03T10:49:25;95358.03;;;26.24;38.95
22389;BME280;11362;48.102;11.620;2022-08-03T10:51:50;95350.38;;;26.28;38.96
22389;BME280;11362;48.102;11.620;2022-08-03T10:54:39;95348.38;;;26.29;38.22
22389;BME280;11362;48.102;11.620;2022-08-03T10:57:04;95347.59;;;26.28;38.95
22389;BME280;11362;48.102;11.620;2022-08-03T11:02:11;95341.31;;;26.24;39.06
22389;BME280;11362;48.102;11.620;2022-08-03T11:04:36;95342.56;;;26.23;39.19
22389;BME280;11362;48.102;11.620;2022-08-03T11:09:44;95335.75;;;26.24;39.44
22389;BME280;11362;48.102;11.620;2022-08-03T11:12:27;95332.97;;;26.24;39.37
22389;BME280;11362;48.102;11.620;2022-08-03T11:14:54;95339.75;;;26.23;39.20
22389;BME280;11362;48.102;11.620;2022-08-03T11:17:20;95331.84;;;26.22;39.29
22389;BME280;11362;48.102;11.620;2022-08-03T11:19:49;95342.91;;;26.25;38.31
22389;BME280;11362;48.102;11.620;2022-08-03T11:22:16;95341.66;;;26.26;38.53
22389;BME280;11362;48.102;11.620;2022-08-03T11:25:02;95340.38;;;26.31;38.11
22389;BME280;11362;48.102;11.620;2022-08-03T11:38:01;95333.66;;;26.28;38.69
22389;BME280;11362;48.102;11.620;2022-08-03T11:40:51;95341.59;;;26.30;38.32
22389;BME280;11362;48.102;11.620;2022-08-03T11:46:08;95331.25;;;26.30;37.85
22389;BME280;11362;48.102;11.620;2022-08-03T11:48:44;95332.00;;;26.31;37.91
22389;BME280;11362;48.102;11.620;2022-08-03T11:51:25;95332.00;;;26.31;38.37
22389;BME280;11362;48.102;11.620;2022-08-03T11:54:01;95332.81;;;26.31;38.15
22389;BME280;11362;48.102;11.620;2022-08-03T11:56:27;95331.25;;;26.30;38.15
22389;BME280;11362;48.102;11.620;2022-08-03T11:58:55;95328.00;;;26.32;37.31
22389;BME280;11362;48.102;11.620;2022-08-03T12:01:23;95324.88;;;26.30;38.32
22389;BME280;11362;48.102;11.620;2022-08-03T12:03:49;95323.66;;;26.31;38.47
22389;BME280;11362;48.102;11.620;2022-08-03T12:06:16;95326.44;;;26.31;38.10
22389;BME280;11362;48.102;11.620;2022-08-03T12:08:43;95319.31;;;26.30;38.39
22389;BME280;11362;48.102;11.620;2022-08-03T12:11:11;95316.09;;;26.31;37.41
22389;BME280;11362;48.102;11.620;2022-08-03T12:16:05;95309.72;;;26.31;38.25
22389;BME280;11362;48.102;11.620;2022-08-03T12:18:31;95310.53;;;26.31;38.14
22389;BME280;11362;48.102;11.620;2022-08-03T12:21:06;95313.31;;;26.31;38.42
22389;BME280;11362;48.102;11.620;2022-08-03T12:23:33;95310.53;;;26.31;38.31
22389;BME280;11362;48.102;11.620;2022-08-03T12:26:06;95306.53;;;26.32;38.08
22389;BME280;11362;48.102;11.620;2022-08-03T12:28:32;95306.53;;;26.32;38.13
22389;BME280;11362;48.102;11.620;2022-08-03T12:31:05;95301.72;;;26.33;38.37
22389;BME280;11362;48.102;11.620;2022-08-03T12:33:32;95296.94;;;26.33;38.39
22389;BME280;11362;48.102;11.620;2022-08-03T12:36:17;95304.09;;;26.34;38.20
22389;BME280;11362;48.102;11.620;2022-08-03T12:38:53;95298.50;;;26.34;38.40
22389;BME280;11362;48.102;11.620;2022-08-03T12:41:26;95300.06;;;26.35;38.39
22389;BME280;11362;48.102;11.620;2022-08-03T12:43:53;95297.28;;;26.35;38.42
22389;BME280;11362;48.102;11.620;2022-08-03T12:46:18;95291.22;;;26.40;37.38
22389;BME280;11362;48.102;11.620;2022-08-03T12:51:29;95290.88;;;26.38;38.26
22389;BME280;11362;48.102;11.620;2022-08-03T12:53:56;95291.63;;;26.39;37.83
22389;BME280;11362;48.102;11.620;2022-08-03T12:56:22;95289.66;;;26.39;37.92
22389;BME280;11362;48.102;11.620;2022-08-03T12:58:48;95295.22;;;26.39;37.74
22389;BME280;11362;48.102;11.620;2022-08-03T13:01:13;95281.28;;;26.39;38.21
22389;BME280;11362;48.102;11.620;2022-08-03T13:03:40;95294.78;;;26.41;37.71
22389;BME280;11362;48.102;11.620;2022-08-03T13:06:12;95276.06;;;26.41;38.00
22389;BME280;11362;48.102;11.620;2022-08-03T13:08:38;95280.78;;;26.44;37.46
22389;BME280;11362;48.102;11.620;2022-08-03T13:11:20;95283.91;;;26.46;37.37
22389;BME280;11362;48.102;11.620;2022-08-03T13:13:46;95280.47;;;26.58;36.60
22389;BME280;11362;48.102;11.620;2022-08-03T13:16:11;95283.66;;;26.57;36.79
22389;BME280;11362;48.102;11.620;2022-08-03T13:18:37;95281.22;;;26.59;36.36